Time;durP1;ratioP1;P1;durP2;ratioP2;P2;SDS_P1;SDS_P2;PMS_P1;PMS_P2;Temp;Humidity;BMP_temperature;BMP_pressure;BME280_temperature;BME280_humidity;BME280_pressure;Samples;Min_cycle;Max_cycle;Signal;HPM_P1;HPM_P2
2022/08/19 00:00:30;;;;;;;;;;;;;;;15.70;100.00;101218.66;1012432;29;19924;-79
2022/08/19 00:01:03;;;;;;;;;;;;;;;15.75;100.00;101210.69;1016916;29;19923;-79
2022/08/19 00:01:35;;;;;;;;;;;;;;;15.73;100.00;101220.84;1020076;29;19923;-79
2022/08/19 00:02:08;;;;;;;;;;;;;;;15.71;100.00;101208.72;1019906;29;20070;-79
2022/08/19 00:02:40;;;;;;;;;;;;;;;15.67;100.00;101211.09;1020392;29;19922;-79
2022/08/19 00:03:20;;;;;;;;;;;;;;;15.71;100.00;101220.28;1020217;29;19935;-79
2022/08/19 00:03:52;;;;;;;;;;;;;;;15.75;100.00;101210.69;1022144;29;19923;-79
2022/08/19 00:04:26;;;;;;;;;;;;;;;15.72;100.00;101211.19;1024203;29;19923;-79
2022/08/19 00:04:57;;;;;;;;;;;;;;;15.73;100.00;101212.81;1017930;29;20474;-79
2022/08/19 00:05:29;;;;;;;;;;;;;;;15.74;100.00;101213.63;1016564;29;20383;-79
2022/08/19 00:06:00;;;;;;;;;;;;;;;15.73;100.00;101212.81;1014438;29;19923;-79
2022/08/19 00:06:33;;;;;;;;;;;;;;;15.68;100.00;101212.72;1020245;29;19922;-79
2022/08/19 00:07:05;;;;;;;;;;;;;;;15.65;100.00;101215.88;1017638;29;20374;-79
2022/08/19 00:07:37;;;;;;;;;;;;;;;15.63;100.00;101207.25;1016393;29;20303;-79
2022/08/19 00:08:08;;;;;;;;;;;;;;;15.61;100.00;101205.84;1012352;29;19923;-79
2022/08/19 00:08:40;;;;;;;;;;;;;;;15.57;100.00;101202.78;1014785;29;19930;-79
2022/08/19 00:09:14;;;;;;;;;;;;;;;15.50;100.00;101212.88;1016977;29;20005;-79
2022/08/19 00:09:46;;;;;;;;;;;;;;;15.48;100.00;101211.47;1021124;29;20404;-79
2022/08/19 00:10:18;;;;;;;;;;;;;;;15.43;100.00;101206.84;1023200;28;19922;-79
2022/08/19 00:10:50;;;;;;;;;;;;;;;15.37;100.00;101208.63;1020266;29;19926;-79
2022/08/19 00:11:22;;;;;;;;;;;;;;;15.38;100.00;101209.44;1020533;29;19923;-79
2022/08/19 00:11:56;;;;;;;;;;;;;;;15.38;100.00;101210.25;1019893;29;20309;-79
2022/08/19 00:12:28;;;;;;;;;;;;;;;15.36;100.00;101206.16;1019301;29;19927;-79
2022/08/19 00:12:59;;;;;;;;;;;;;;;15.35;100.00;101209.91;1020381;29;19938;-79
2022/08/19 00:13:31;;;;;;;;;;;;;;;15.36;100.00;101201.63;1019658;29;19930;-79
2022/08/19 00:14:03;;;;;;;;;;;;;;;15.36;100.00;101204.31;1016666;29;19927;-79
2022/08/19 00:14:35;;;;;;;;;;;;;;;15.36;100.00;101204.31;1012348;29;19923;-79
2022/08/19 00:15:12;;;;;;;;;;;;;;;15.40;100.00;101204.63;1012413;29;19923;-79
2022/08/19 00:15:44;;;;;;;;;;;;;;;15.32;100.00;101205.81;1009884;29;20293;-79
2022/08/19 00:16:19;;;;;;;;;;;;;;;15.22;100.00;101204.81;1012303;29;19970;-79
2022/08/19 00:16:56;;;;;;;;;;;;;;;15.27;100.00;101203.03;1012301;29;19933;-79
2022/08/19 00:17:28;;;;;;;;;;;;;;;15.30;100.00;101204.41;1015052;29;20387;-79
2022/08/19 00:17:59;;;;;;;;;;;;;;;15.29;100.00;101206.28;1020394;29;19922;-79
2022/08/19 00:18:31;;;;;;;;;;;;;;;15.23;100.00;101207.25;1020312;29;19930;-79
2022/08/19 00:19:03;;;;;;;;;;;;;;;15.20;100.00;101205.03;1019824;29;19930;-79
2022/08/19 00:19:35;;;;;;;;;;;;;;;15.26;100.00;101205.94;1016387;29;19930;-80
2022/08/19 00:20:07;;;;;;;;;;;;;;;15.20;100.00;101201.53;1012427;29;19924;-79
2022/08/19 00:20:40;;;;;;;;;;;;;;;15.26;100.00;101211.31;1012036;29;19923;-79
2022/08/19 00:21:11;;;;;;;;;;;;;;;15.17;100.00;101210.06;1013038;29;19935;-79
2022/08/19 00:21:43;;;;;;;;;;;;;;;15.15;100.00;101210.31;1016449;29;19923;-79
2022/08/19 00:22:15;;;;;;;;;;;;;;;15.14;100.00;101200.63;1020086;29;19933;-79
2022/08/19 00:22:48;;;;;;;;;;;;;;;15.13;100.00;101207.03;1019529;29;19927;-79
2022/08/19 00:23:19;;;;;;;;;;;;;;;15.17;100.00;101212.75;1016731;29;19923;-79
2022/08/19 00:23:51;;;;;;;;;;;;;;;15.14;100.00;101209.50;1017504;29;20562;-79
2022/08/19 00:24:23;;;;;;;;;;;;;;;15.07;100.00;101208.81;1019456;29;19922;-79
2022/08/19 00:24:54;;;;;;;;;;;;;;;15.08;100.00;101209.63;1016101;29;19930;-79
2022/08/19 00:25:27;;;;;;;;;;;;;;;15.11;100.00;101212.66;1016753;29;19922;-79
2022/08/19 00:26:01;;;;;;;;;;;;;;;15.08;100.00;101210.44;1020268;29;19923;-79
2022/08/19 00:26:33;;;;;;;;;;;;;;;15.04;100.00;101211.94;1020120;29;19922;-79
2022/08/19 00:27:04;;;;;;;;;;;;;;;15.02;100.00;101215.91;1019957;29;19962;-79
2022/08/19 00:27:56;;;;;;;;;;;;;;;15.07;100.00;101208.81;1018129;29;19955;-79
2022/08/19 00:28:28;;;;;;;;;;;;;;;15.02;100.00;101203.31;1018798;29;20025;-79
2022/08/19 00:29:00;;;;;;;;;;;;;;;14.97;100.00;101213.94;1019107;29;19930;-79
2022/08/19 00:29:32;;;;;;;;;;;;;;;15.00;100.00;101205.44;1020646;28;19923;-79
2022/08/19 00:30:04;;;;;;;;;;;;;;;15.01;100.00;101206.25;1020358;29;19945;-79
2022/08/19 00:30:36;;;;;;;;;;;;;;;15.03;100.00;101206.81;1020085;29;20353;-79
2022/08/19 00:31:08;;;;;;;;;;;;;;;14.98;100.00;101204.84;1020290;29;19931;-79
2022/08/19 00:31:41;;;;;;;;;;;;;;;14.99;100.00;101206.47;1016033;29;19927;-79
2022/08/19 00:32:13;;;;;;;;;;;;;;;15.04;100.00;101203.91;1015979;29;19930;-79
2022/08/19 00:32:49;;;;;;;;;;;;;;;15.07;100.00;101208.00;1016939;29;19923;-79
2022/08/19 00:33:20;;;;;;;;;;;;;;;15.10;100.00;101207.53;1020262;29;19922;-79
2022/08/19 00:33:52;;;;;;;;;;;;;;;15.11;100.00;101209.97;1020481;29;19923;-79
2022/08/19 00:34:24;;;;;;;;;;;;;;;15.14;100.00;101209.50;1020122;29;19930;-78
2022/08/19 00:34:56;;;;;;;;;;;;;;;15.14;100.00;101209.50;1024110;29;19930;-79
2022/08/19 00:35:28;;;;;;;;;;;;;;;15.15;100.00;101213.00;1024134;29;19922;-78
2022/08/19 00:36:00;;;;;;;;;;;;;;;15.14;100.00;101214.03;1024081;29;20303;-78
2022/08/19 00:36:32;;;;;;;;;;;;;;;15.15;100.00;101208.44;1024364;29;19930;-79
2022/08/19 00:37:04;;;;;;;;;;;;;;;15.21;100.00;101209.34;1024280;29;19959;-78
2022/08/19 00:37:42;;;;;;;;;;;;;;;15.22;100.00;101207.47;1024698;29;19923;-78
2022/08/19 00:38:14;;;;;;;;;;;;;;;15.22;100.00;101204.81;1022279;29;20430;-78
2022/08/19 00:38:46;;;;;;;;;;;;;;;15.26;100.00;101203.25;1019499;29;20024;-79
2022/08/19 00:39:17;;;;;;;;;;;;;;;15.24;100.00;101208.06;1020036;29;19938;-79
2022/08/19 00:39:50;;;;;;;;;;;;;;;15.24;100.00;101210.75;1017256;29;19930;-79
2022/08/19 00:40:22;;;;;;;;;;;;;;;15.26;100.00;101203.25;1016197;29;20074;-79
2022/08/19 00:40:54;;;;;;;;;;;;;;;15.33;100.00;101212.00;1015765;29;19939;-78
2022/08/19 00:41:25;;;;;;;;;;;;;;;15.32;100.00;101207.66;1016790;29;19930;-78
2022/08/19 00:41:57;;;;;;;;;;;;;;;15.23;100.00;101206.44;1020752;29;20383;-78
2022/08/19 00:42:28;;;;;;;;;;;;;;;15.22;100.00;101215.53;1020926;29;20571;-78
2022/08/19 00:43:00;;;;;;;;;;;;;;;15.25;100.00;101201.63;1020606;29;19926;-78
2022/08/19 00:43:31;;;;;;;;;;;;;;;15.27;100.00;101207.56;1021507;29;19922;-78
2022/08/19 00:44:07;;;;;;;;;;;;;;;15.25;100.00;101215.06;1025604;28;20306;-78
2022/08/19 00:44:39;;;;;;;;;;;;;;;15.19;100.00;101210.66;1023717;29;19930;-78
2022/08/19 00:45:20;;;;;;;;;;;;;;;15.13;100.00;101212.41;1020123;29;19975;-78
2022/08/19 00:45:52;;;;;;;;;;;;;;;15.12;100.00;101208.91;1020030;29;20311;-78
2022/08/19 00:46:23;;;;;;;;;;;;;;;15.11;100.00;101214.53;1015822;29;20406;-78
2022/08/19 00:46:57;;;;;;;;;;;;;;;15.13;100.00;101210.53;1016025;29;19923;-78
2022/08/19 00:47:29;;;;;;;;;;;;;;;15.08;100.00;101210.44;1016835;29;19923;-79
2022/08/19 00:48:04;;;;;;;;;;;;;;;15.04;100.00;101214.63;1021141;29;19929;-78
2022/08/19 00:48:45;;;;;;;;;;;;;;;14.93;100.00;101212.78;1023908;29;19922;-78
2022/08/19 00:49:36;;;;;;;;;;;;;;;14.97;100.00;101215.81;1024082;29;19930;-78
2022/08/19 00:50:09;;;;;;;;;;;;;;;14.77;100.00;101213.50;1023727;29;20426;-78
2022/08/19 00:50:42;;;;;;;;;;;;;;;14.81;100.00;101214.69;1020103;29;19926;-78
2022/08/19 00:51:24;;;;;;;;;;;;;;;14.89;100.00;101216.19;1017811;29;20423;-78
2022/08/19 00:52:00;;;;;;;;;;;;;;;14.90;100.00;101210.59;1019873;29;19926;-78
2022/08/19 00:52:33;;;;;;;;;;;;;;;14.90;100.00;101215.13;1019643;29;19929;-78
2022/08/19 00:53:04;;;;;;;;;;;;;;;14.93;100.00;101211.97;1017888;29;19938;-79
2022/08/19 00:53:36;;;;;;;;;;;;;;;14.88;100.00;101215.38;1012114;29;20309;-78
2022/08/19 00:54:08;;;;;;;;;;;;;;;14.94;100.00;101214.44;1012771;29;19978;-79
2022/08/19 00:54:40;;;;;;;;;;;;;;;14.93;100.00;101215.47;1012841;29;20309;-78
2022/08/19 00:55:16;;;;;;;;;;;;;;;14.71;100.00;101219.81;1016531;29;19923;-79
2022/08/19 00:55:48;;;;;;;;;;;;;;;14.72;100.00;101218.75;1016333;29;19927;-78
2022/08/19 00:56:21;;;;;;;;;;;;;;;14.77;100.00;101214.31;1017337;29;19971;-79
2022/08/19 00:56:53;;;;;;;;;;;;;;;14.83;100.00;101215.28;1016056;29;19923;-78
2022/08/19 00:57:30;;;;;;;;;;;;;;;14.89;100.00;101211.63;1015968;29;19954;-78
2022/08/19 00:58:03;;;;;;;;;;;;;;;14.94;100.00;101217.09;1016290;29;20315;-78
2022/08/19 00:58:35;;;;;;;;;;;;;;;14.96;100.00;101217.69;1016216;29;19922;-78
2022/08/19 00:59:08;;;;;;;;;;;;;;;14.98;100.00;101210.22;1011310;29;19924;-78
2022/08/19 00:59:40;;;;;;;;;;;;;;;15.01;100.00;101215.09;1013120;29;19958;-78
2022/08/19 01:00:33;;;;;;;;;;;;;;;14.89;100.00;101216.19;1019464;29;19923;-78
2022/08/19 01:01:05;;;;;;;;;;;;;;;14.79;100.00;101214.06;1019828;29;20009;-78
2022/08/19 01:01:37;;;;;;;;;;;;;;;14.81;100.00;101217.38;1019574;29;19923;-78
2022/08/19 01:02:08;;;;;;;;;;;;;;;14.78;100.00;101215.13;1019950;29;20391;-78
2022/08/19 01:02:40;;;;;;;;;;;;;;;14.76;100.00;101215.38;1020995;29;19923;-78
2022/08/19 01:03:14;;;;;;;;;;;;;;;14.76;100.00;101211.88;1023782;29;20426;-78
2022/08/19 01:03:49;;;;;;;;;;;;;;;14.77;100.00;101216.19;1023845;29;20337;-79
2022/08/19 01:04:29;;;;;;;;;;;;;;;14.76;100.00;101214.56;1019582;29;19927;-79
2022/08/19 01:05:01;;;;;;;;;;;;;;;14.73;100.00;101217.72;1019869;29;20379;-78
2022/08/19 01:05:33;;;;;;;;;;;;;;;14.70;100.00;101218.19;1020126;29;19922;-78
2022/08/19 01:06:05;;;;;;;;;;;;;;;14.70;100.00;101213.63;1020024;29;20288;-78
2022/08/19 01:06:37;;;;;;;;;;;;;;;14.67;100.00;101215.97;1019990;29;19923;-79
2022/08/19 01:07:08;;;;;;;;;;;;;;;14.65;100.00;101215.38;1015633;29;19931;-78
2022/08/19 01:07:45;;;;;;;;;;;;;;;14.57;100.00;101213.06;1015904;29;19923;-78
2022/08/19 01:08:17;;;;;;;;;;;;;;;14.63;100.00;101217.50;1017236;29;19923;-78
2022/08/19 01:08:49;;;;;;;;;;;;;;;14.64;100.00;101221.81;1017167;29;19979;-78
2022/08/19 01:09:20;;;;;;;;;;;;;;;14.45;100.00;101216.53;1020028;29;20017;-78
2022/08/19 01:09:52;;;;;;;;;;;;;;;14.52;100.00;101214.59;1020055;29;19995;-78
2022/08/19 01:10:24;;;;;;;;;;;;;;;14.57;100.00;101207.72;1020392;29;19927;-78
2022/08/19 01:10:56;;;;;;;;;;;;;;;14.58;100.00;101223.56;1024065;29;19926;-78
2022/08/19 01:11:28;;;;;;;;;;;;;;;14.51;100.00;101220.97;1024089;29;19930;-78
2022/08/19 01:12:00;;;;;;;;;;;;;;;14.50;100.00;101213.97;1023322;29;19929;-78
2022/08/19 01:12:31;;;;;;;;;;;;;;;14.51;100.00;101210.25;1023964;29;19938;-78
2022/08/19 01:13:03;;;;;;;;;;;;;;;14.49;100.00;101209.66;1020197;29;19923;-78
2022/08/19 01:13:34;;;;;;;;;;;;;;;14.49;100.00;101216.88;1015393;29;20429;-78
2022/08/19 01:14:20;;;;;;;;;;;;;;;14.48;100.00;101216.06;1016081;29;19935;-78
2022/08/19 01:14:51;;;;;;;;;;;;;;;14.45;100.00;101211.19;1015948;29;19923;-78
2022/08/19 01:15:24;;;;;;;;;;;;;;;14.40;100.00;101213.72;1017140;29;19923;-78
2022/08/19 01:16:00;;;;;;;;;;;;;;;14.39;100.00;101211.28;1019505;29;19967;-78
2022/08/19 01:16:32;;;;;;;;;;;;;;;14.39;100.00;101212.09;1014757;29;19938;-78
2022/08/19 01:17:03;;;;;;;;;;;;;;;14.38;100.00;101215.00;1015814;29;19923;-79
2022/08/19 01:17:36;;;;;;;;;;;;;;;14.34;100.00;101209.28;1016990;29;20327;-78
2022/08/19 01:18:08;;;;;;;;;;;;;;;14.30;100.00;101208.13;1020413;29;19923;-78
2022/08/19 01:18:40;;;;;;;;;;;;;;;14.26;100.00;101209.63;1020142;29;19922;-78
2022/08/19 01:19:17;;;;;;;;;;;;;;;14.25;100.00;101204.50;1012187;29;19923;-78
2022/08/19 01:19:49;;;;;;;;;;;;;;;14.28;100.00;101210.22;1012041;29;19927;-78
2022/08/19 01:20:21;;;;;;;;;;;;;;;14.24;100.00;101206.34;1012118;29;19923;-78
2022/08/19 01:20:54;;;;;;;;;;;;;;;14.25;100.00;101209.88;1013234;29;19968;-78
2022/08/19 01:21:25;;;;;;;;;;;;;;;14.29;100.00;101211.03;1020177;29;20382;-78
2022/08/19 01:22:01;;;;;;;;;;;;;;;14.28;100.00;101210.22;1019389;29;19922;-79
2022/08/19 01:22:46;;;;;;;;;;;;;;;14.28;100.00;101210.22;1015914;29;19923;-78
2022/08/19 01:23:18;;;;;;;;;;;;;;;14.28;100.00;101210.22;1014686;29;20367;-78
2022/08/19 01:23:49;;;;;;;;;;;;;;;14.28;100.00;101210.22;1016108;29;19923;-79
2022/08/19 01:24:21;;;;;;;;;;;;;;;14.29;100.00;101219.91;1019494;29;19931;-78
2022/08/19 01:24:52;;;;;;;;;;;;;;;14.23;100.00;101205.53;1016091;29;20018;-78
2022/08/19 01:25:27;;;;;;;;;;;;;;;14.23;100.00;101210.06;1019165;29;20061;-78
2022/08/19 01:25:59;;;;;;;;;;;;;;;14.24;100.00;101209.03;1018963;29;19992;-78
2022/08/19 01:26:30;;;;;;;;;;;;;;;14.22;100.00;101211.13;1018486;29;19930;-79
2022/08/19 01:27:05;;;;;;;;;;;;;;;14.21;100.00;101204.13;1020237;29;20279;-78
2022/08/19 01:27:42;;;;;;;;;;;;;;;14.21;100.00;101210.31;1016263;29;20013;-78
2022/08/19 01:28:21;;;;;;;;;;;;;;;14.24;100.00;101203.66;1011952;29;19923;-78
2022/08/19 01:29:04;;;;;;;;;;;;;;;14.19;100.00;101216.94;1011904;29;19934;-78
2022/08/19 01:29:36;;;;;;;;;;;;;;;14.17;100.00;101205.66;1019416;29;19923;-78
2022/08/19 01:30:09;;;;;;;;;;;;;;;14.18;100.00;101199.25;1016072;29;19923;-78
2022/08/19 01:30:40;;;;;;;;;;;;;;;14.20;100.00;101203.31;1011891;29;19924;-78
2022/08/19 01:31:23;;;;;;;;;;;;;;;14.22;100.00;101201.22;1013431;29;19923;-78
2022/08/19 01:31:58;;;;;;;;;;;;;;;14.28;100.00;101204.88;1011743;29;19924;-78
2022/08/19 01:32:30;;;;;;;;;;;;;;;14.10;100.00;101196.91;1016767;29;20319;-78
2022/08/19 01:33:05;;;;;;;;;;;;;;;14.12;100.00;101194.81;1014789;29;20198;-78
2022/08/19 01:33:37;;;;;;;;;;;;;;;14.15;100.00;101199.72;1014413;29;19923;-78
2022/08/19 01:34:10;;;;;;;;;;;;;;;14.17;100.00;101189.56;1015950;29;20339;-78
2022/08/19 01:34:41;;;;;;;;;;;;;;;14.19;100.00;101198.19;1016873;29;20467;-78
2022/08/19 01:35:17;;;;;;;;;;;;;;;14.20;100.00;101200.63;1011975;29;19923;-78
2022/08/19 01:35:51;;;;;;;;;;;;;;;14.06;100.00;101201.09;1008368;29;19923;-78
2022/08/19 01:36:33;;;;;;;;;;;;;;;14.07;100.00;101200.88;1014492;29;19923;-78
2022/08/19 01:37:08;;;;;;;;;;;;;;;14.15;100.00;101194.34;1014798;29;19923;-78
2022/08/19 01:37:47;;;;;;;;;;;;;;;14.21;100.00;101201.47;1016557;29;19923;-78
2022/08/19 01:38:20;;;;;;;;;;;;;;;14.23;100.00;101196.69;1019729;29;19923;-78
2022/08/19 01:38:52;;;;;;;;;;;;;;;14.08;100.00;101194.47;1019587;29;19923;-78
2022/08/19 01:39:24;;;;;;;;;;;;;;;14.15;100.00;101197.03;1019910;29;19930;-78
2022/08/19 01:39:55;;;;;;;;;;;;;;;14.21;100.00;101198.78;1020077;29;19922;-78
2022/08/19 01:40:31;;;;;;;;;;;;;;;14.08;100.00;101194.47;1015787;29;19973;-78
2022/08/19 01:41:03;;;;;;;;;;;;;;;14.11;100.00;101198.53;1013107;29;20025;-78
2022/08/19 01:41:41;;;;;;;;;;;;;;;14.16;100.00;101195.97;1015632;29;19979;-78
2022/08/19 01:42:12;;;;;;;;;;;;;;;14.19;100.00;101193.66;1011887;29;19923;-78
2022/08/19 01:42:44;;;;;;;;;;;;;;;14.20;100.00;101202.50;1009280;29;19924;-79
2022/08/19 01:43:15;;;;;;;;;;;;;;;14.23;100.00;101202.84;1016044;29;19923;-78
2022/08/19 01:43:47;;;;;;;;;;;;;;;14.25;100.00;101199.97;1016424;29;20327;-78
2022/08/19 01:44:39;;;;;;;;;;;;;;;14.23;100.00;101202.03;1024154;28;19962;-78
2022/08/19 01:45:11;;;;;;;;;;;;;;;14.29;100.00;101201.13;1024079;29;19930;-78
2022/08/19 01:45:42;;;;;;;;;;;;;;;14.33;100.00;101202.31;1023527;29;19930;-79
2022/08/19 01:46:14;;;;;;;;;;;;;;;14.40;100.00;101197.63;1023986;29;19939;-78
2022/08/19 01:46:47;;;;;;;;;;;;;;;14.43;100.00;101207.91;1023576;29;20945;-79
2022/08/19 01:47:19;;;;;;;;;;;;;;;14.49;100.00;101201.63;1023729;29;19930;-78
2022/08/19 01:47:50;;;;;;;;;;;;;;;14.57;100.00;101202.34;1023791;29;19933;-78
2022/08/19 01:48:36;;;;;;;;;;;;;;;14.57;100.00;101205.03;1023725;29;20375;-78
2022/08/19 01:49:07;;;;;;;;;;;;;;;14.61;100.00;101203.50;1023840;29;20383;-78
2022/08/19 01:49:39;;;;;;;;;;;;;;;14.65;100.00;101204.66;1023820;29;19922;-78
2022/08/19 01:50:11;;;;;;;;;;;;;;;14.62;100.00;101200.59;1024277;29;19922;-78
2022/08/19 01:50:43;;;;;;;;;;;;;;;14.63;100.00;101207.59;1023597;29;19945;-74
2022/08/19 01:51:14;;;;;;;;;;;;;;;14.68;100.00;101199.66;1021888;29;20040;-74
2022/08/19 01:51:46;;;;;;;;;;;;;;;14.67;100.00;101203.38;1015719;29;19923;-74
2022/08/19 01:52:17;;;;;;;;;;;;;;;14.70;100.00;101208.25;1015766;29;19927;-75
2022/08/19 01:52:49;;;;;;;;;;;;;;;14.67;100.00;101207.91;1016064;29;19927;-74
2022/08/19 01:53:36;;;;;;;;;;;;;;;14.47;100.00;101214.44;1018912;29;20447;-74
2022/08/19 01:54:09;;;;;;;;;;;;;;;14.44;100.00;101214.91;1019993;29;19922;-75
2022/08/19 01:54:40;;;;;;;;;;;;;;;14.39;100.00;101213.94;1015779;29;19935;-74
2022/08/19 01:55:13;;;;;;;;;;;;;;;14.39;100.00;101212.09;1016148;29;19927;-74
2022/08/19 01:55:45;;;;;;;;;;;;;;;14.38;100.00;101215.81;1011625;29;20404;-74
2022/08/19 01:56:17;;;;;;;;;;;;;;;14.37;100.00;101213.38;1012676;29;19930;-74
2022/08/19 01:56:49;;;;;;;;;;;;;;;14.30;100.00;101218.03;1012052;29;19923;-74
2022/08/19 01:57:21;;;;;;;;;;;;;;;14.22;100.00;101211.13;1008512;29;19931;-74
2022/08/19 01:57:54;;;;;;;;;;;;;;;14.17;100.00;101213.69;1011145;29;19931;-74
2022/08/19 01:58:30;;;;;;;;;;;;;;;14.08;100.00;101207.03;1008759;29;19932;-74
2022/08/19 01:59:02;;;;;;;;;;;;;;;14.00;100.00;101212.75;1013302;29;19923;-74
2022/08/19 01:59:36;;;;;;;;;;;;;;;13.95;100.00;101201.88;1013512;29;19923;-74
2022/08/19 02:00:09;;;;;;;;;;;;;;;13.90;100.00;101208.75;1017145;29;19922;-74
2022/08/19 02:00:44;;;;;;;;;;;;;;;13.91;100.00;101206.88;1019291;29;19926;-74
2022/08/19 02:01:16;;;;;;;;;;;;;;;13.89;100.00;101200.94;1020841;29;20021;-74
2022/08/19 02:01:48;;;;;;;;;;;;;;;13.84;100.00;101204.31;1021481;29;19923;-75
2022/08/19 02:02:19;;;;;;;;;;;;;;;13.80;100.00;101208.50;1019854;29;19922;-74
2022/08/19 02:02:51;;;;;;;;;;;;;;;13.80;100.00;101202.31;1020959;29;19930;-74
2022/08/19 02:03:23;;;;;;;;;;;;;;;13.82;100.00;101211.75;1016310;29;20009;-74
2022/08/19 02:03:54;;;;;;;;;;;;;;;13.82;100.00;101206.41;1015900;29;19923;-74
2022/08/19 02:04:28;;;;;;;;;;;;;;;13.82;100.00;101206.41;1015897;29;20407;-74
2022/08/19 02:04:59;;;;;;;;;;;;;;;13.74;100.00;101209.41;1016050;29;19931;-75
2022/08/19 02:05:31;;;;;;;;;;;;;;;13.69;100.00;101213.78;1020281;29;19922;-74
2022/08/19 02:06:03;;;;;;;;;;;;;;;13.72;100.00;101210.69;1019983;29;19923;-74
2022/08/19 02:06:34;;;;;;;;;;;;;;;13.75;100.00;101211.03;1015624;29;19923;-74
2022/08/19 02:07:07;;;;;;;;;;;;;;;13.77;100.00;101211.63;1016172;29;20280;-78
2022/08/19 02:07:40;;;;;;;;;;;;;;;13.78;100.00;101210.59;1015576;29;19945;-78
2022/08/19 02:08:11;;;;;;;;;;;;;;;13.80;100.00;101208.50;1012632;29;19924;-78
2022/08/19 02:08:45;;;;;;;;;;;;;;;13.85;100.00;101205.94;1012028;29;19923;-79
2022/08/19 02:09:18;;;;;;;;;;;;;;;13.89;100.00;101199.06;1011100;29;20048;-79
2022/08/19 02:09:49;;;;;;;;;;;;;;;13.92;100.00;101200.47;1013354;29;19976;-78
2022/08/19 02:10:21;;;;;;;;;;;;;;;13.96;100.00;101206.19;1017309;29;19923;-78
2022/08/19 02:10:53;;;;;;;;;;;;;;;14.04;100.00;101205.88;1016103;29;19923;-79
2022/08/19 02:11:27;;;;;;;;;;;;;;;14.05;100.00;101199.47;1010986;29;20158;-78
2022/08/19 02:11:58;;;;;;;;;;;;;;;14.07;100.00;101198.19;1011804;29;19924;-78
2022/08/19 02:12:30;;;;;;;;;;;;;;;14.08;100.00;101202.50;1012735;29;19923;-78
2022/08/19 02:13:03;;;;;;;;;;;;;;;14.11;100.00;101203.91;1015920;29;20402;-78
2022/08/19 02:13:34;;;;;;;;;;;;;;;14.13;100.00;101204.47;1015769;29;19930;-78
2022/08/19 02:14:06;;;;;;;;;;;;;;;14.15;100.00;101205.06;1012270;29;19924;-78
2022/08/19 02:14:38;;;;;;;;;;;;;;;14.17;100.00;101208.31;1012106;29;19931;-78
2022/08/19 02:15:09;;;;;;;;;;;;;;;14.12;100.00;101208.22;1011944;29;19946;-78
2022/08/19 02:15:41;;;;;;;;;;;;;;;14.08;100.00;101204.38;1008291;29;20079;-78
2022/08/19 02:16:12;;;;;;;;;;;;;;;14.09;100.00;101200.63;1012240;29;20426;-78
2022/08/19 02:16:44;;;;;;;;;;;;;;;14.11;100.00;101214.63;1011760;29;19924;-78
2022/08/19 02:17:15;;;;;;;;;;;;;;;14.11;100.00;101212.75;1012233;29;20055;-78
2022/08/19 02:17:47;;;;;;;;;;;;;;;14.15;100.00;101208.56;1016511;29;19923;-79
2022/08/19 02:18:18;;;;;;;;;;;;;;;14.18;100.00;101215.31;1016345;29;19923;-78
2022/08/19 02:18:50;;;;;;;;;;;;;;;14.10;100.00;101208.44;1020042;29;19923;-78
2022/08/19 02:19:22;;;;;;;;;;;;;;;14.08;100.00;101209.72;1019912;29;19930;-78
2022/08/19 02:19:53;;;;;;;;;;;;;;;14.06;100.00;101206.47;1020902;29;20414;-78
2022/08/19 02:20:25;;;;;;;;;;;;;;;14.06;100.00;101206.47;1019887;29;20323;-78
2022/08/19 02:20:56;;;;;;;;;;;;;;;14.06;100.00;101201.09;1020006;29;19930;-78
2022/08/19 02:21:28;;;;;;;;;;;;;;;14.07;100.00;101202.72;1021071;29;19931;-79
2022/08/19 02:21:59;;;;;;;;;;;;;;;14.10;100.00;101203.09;1019722;29;19923;-79
2022/08/19 02:22:31;;;;;;;;;;;;;;;14.19;100.00;101209.72;1015767;29;19931;-79
2022/08/19 02:23:03;;;;;;;;;;;;;;;14.23;100.00;101210.06;1012116;29;19991;-79
2022/08/19 02:23:34;;;;;;;;;;;;;;;14.25;100.00;101197.28;1011756;29;20059;-78
2022/08/19 02:24:06;;;;;;;;;;;;;;;14.22;100.00;101195.88;1008661;29;19923;-78
2022/08/19 02:24:38;;;;;;;;;;;;;;;14.20;100.00;101197.16;1011858;29;19927;-78
2022/08/19 02:25:10;;;;;;;;;;;;;;;14.14;100.00;101198.06;1011913;29;19923;-79
2022/08/19 02:25:44;;;;;;;;;;;;;;;14.10;100.00;101195.03;1012142;29;20285;-78
2022/08/19 02:26:15;;;;;;;;;;;;;;;14.09;100.00;101200.63;1013079;29;19923;-78
2022/08/19 02:26:47;;;;;;;;;;;;;;;14.02;100.00;101199.94;1016036;29;19969;-78
2022/08/19 02:27:19;;;;;;;;;;;;;;;13.97;100.00;101200.63;1015184;29;19930;-78
2022/08/19 02:27:50;;;;;;;;;;;;;;;13.92;100.00;101206.66;1016460;29;19923;-78
2022/08/19 02:28:22;;;;;;;;;;;;;;;13.88;100.00;101205.47;1015982;29;19939;-78
2022/08/19 02:28:54;;;;;;;;;;;;;;;13.85;100.00;101208.63;1015503;29;19923;-78
2022/08/19 02:29:25;;;;;;;;;;;;;;;13.83;100.00;101208.03;1015814;29;19923;-78
2022/08/19 02:29:57;;;;;;;;;;;;;;;13.80;100.00;101213.84;1016354;29;19933;-78
2022/08/19 02:30:28;;;;;;;;;;;;;;;13.76;100.00;101207.31;1016159;29;19930;-78
2022/08/19 02:31:00;;;;;;;;;;;;;;;13.75;100.00;101211.03;1016177;29;19930;-78
2022/08/19 02:31:33;;;;;;;;;;;;;;;13.73;100.00;101218.47;1019933;29;19929;-78
2022/08/19 02:32:04;;;;;;;;;;;;;;;13.73;100.00;101218.47;1019449;29;19923;-78
2022/08/19 02:32:36;;;;;;;;;;;;;;;13.72;100.00;101216.03;1019657;29;19930;-78
2022/08/19 02:33:15;;;;;;;;;;;;;;;13.65;100.00;101220.66;1019936;29;19930;-78
2022/08/19 02:33:46;;;;;;;;;;;;;;;13.63;100.00;101218.19;1015911;29;19971;-78
2022/08/19 02:34:18;;;;;;;;;;;;;;;13.66;100.00;101223.09;1012736;29;19924;-78
2022/08/19 02:34:49;;;;;;;;;;;;;;;13.71;100.00;101219.75;1012260;29;19924;-78
2022/08/19 02:35:21;;;;;;;;;;;;;;;13.76;100.00;101214.53;1013223;29;20258;-78
2022/08/19 02:35:52;;;;;;;;;;;;;;;13.73;100.00;101212.31;1017361;29;19966;-78
2022/08/19 02:36:24;;;;;;;;;;;;;;;13.75;100.00;101220.94;1020262;29;19930;-79
2022/08/19 02:36:56;;;;;;;;;;;;;;;13.72;100.00;101221.38;1020606;29;19938;-78
2022/08/19 02:38:27;;;;;;;;;;;;;;;13.76;100.00;101220.69;1016655;29;19927;-78
2022/08/19 02:38:58;;;;;;;;;;;;;;;13.71;100.00;101217.06;1020555;29;19978;-78
2022/08/19 02:39:29;;;;;;;;;;;;;;;13.70;100.00;101213.59;1020400;29;19923;-78
2022/08/19 02:40:01;;;;;;;;;;;;;;;13.77;100.00;101218.84;1023173;29;19923;-78
2022/08/19 02:40:34;;;;;;;;;;;;;;;13.84;100.00;101204.31;1014370;29;19928;-78
2022/08/19 02:41:07;;;;;;;;;;;;;;;13.85;100.00;101213.97;1016234;29;19923;-78
2022/08/19 02:41:38;;;;;;;;;;;;;;;13.89;100.00;101214.31;1012584;29;19935;-78
2022/08/19 02:42:09;;;;;;;;;;;;;;;13.91;100.00;101210.38;1013612;29;19923;-78
2022/08/19 02:42:42;;;;;;;;;;;;;;;13.96;100.00;101214.22;1019183;29;19923;-78
2022/08/19 02:43:14;;;;;;;;;;;;;;;13.98;100.00;101206.78;1021051;29;19923;-78
2022/08/19 02:43:45;;;;;;;;;;;;;;;14.03;100.00;101212.28;1024785;29;19930;-78
2022/08/19 02:44:37;;;;;;;;;;;;;;;14.00;100.00;101218.91;1020549;29;19929;-78
2022/08/19 02:45:09;;;;;;;;;;;;;;;14.01;100.00;101209.00;1016310;29;19923;-79
2022/08/19 02:45:40;;;;;;;;;;;;;;;14.05;100.00;101211.00;1016794;29;20406;-78
2022/08/19 02:46:13;;;;;;;;;;;;;;;14.09;100.00;101211.34;1017095;29;20362;-78
2022/08/19 02:46:45;;;;;;;;;;;;;;;14.11;100.00;101206.56;1016377;29;19923;-78
2022/08/19 02:47:18;;;;;;;;;;;;;;;14.14;100.00;101211.47;1013479;29;19935;-78
2022/08/19 02:47:49;;;;;;;;;;;;;;;14.11;100.00;101211.94;1016554;29;19923;-78
2022/08/19 02:48:22;;;;;;;;;;;;;;;14.14;100.00;101214.16;1017117;29;19971;-78
2022/08/19 02:48:57;;;;;;;;;;;;;;;14.20;100.00;101208.69;1015940;29;19930;-78
2022/08/19 02:49:30;;;;;;;;;;;;;;;14.25;100.00;101210.69;1016481;29;20307;-79